sensor_id;sensor_type;location;lat;lon;timestamp;temperature;humidity
45383;DHT22;42455;51.660;5.824;2022-12-29T00:00:38;13.4;98.5
45383;DHT22;42455;51.660;5.824;2022-12-29T00:05:45;13.4;98.5
45383;DHT22;42455;51.660;5.824;2022-12-29T00:10:51;13.4;98.5
45383;DHT22;42455;51.660;5.824;2022-12-29T00:15:57;13.4;98.5
45383;DHT22;42455;51.660;5.824;2022-12-29T00:21:03;13.4;98.5
45383;DHT22;42455;51.660;5.824;2022-12-29T00:26:13;13.4;98.5
45383;DHT22;42455;51.660;5.824;2022-12-29T00:31:16;13.4;98.5
45383;DHT22;42455;51.660;5.824;2022-12-29T00:36:25;13.4;98.0
45383;DHT22;42455;51.660;5.824;2022-12-29T00:41:28;13.3;98.0
45383;DHT22;42455;51.660;5.824;2022-12-29T00:46:36;13.3;98.0
45383;DHT22;42455;51.660;5.824;2022-12-29T00:51:41;13.2;98.0
45383;DHT22;42455;51.660;5.824;2022-12-29T00:56:47;13.1;98.0
45383;DHT22;42455;51.660;5.824;2022-12-29T01:01:54;13.1;98.0
45383;DHT22;42455;51.660;5.824;2022-12-29T01:06:59;13.0;98.0
45383;DHT22;42455;51.660;5.824;2022-12-29T01:12:07;13.0;98.5
45383;DHT22;42455;51.660;5.824;2022-12-29T01:17:11;13.0;98.5
45383;DHT22;42455;51.660;5.824;2022-12-29T01:22:18;13.0;98.5
45383;DHT22;42455;51.660;5.824;2022-12-29T01:27:24;13.0;98.5
45383;DHT22;42455;51.660;5.824;2022-12-29T01:32:30;13.0;98.5
45383;DHT22;42455;51.660;5.824;2022-12-29T01:37:36;13.1;98.5
45383;DHT22;42455;51.660;5.824;2022-12-29T01:42:42;13.1;98.5
45383;DHT22;42455;51.660;5.824;2022-12-29T01:47:52;13.1;98.5
45383;DHT22;42455;51.660;5.824;2022-12-29T01:53:09;13.1;98.5
45383;DHT22;42455;51.660;5.824;2022-12-29T01:58:04;13.2;98.5
45383;DHT22;42455;51.660;5.824;2022-12-29T02:03:09;13.2;98.5
45383;DHT22;42455;51.660;5.824;2022-12-29T02:08:14;13.2;98.5
45383;DHT22;42455;51.660;5.824;2022-12-29T02:13:20;13.2;98.5
45383;DHT22;42455;51.660;5.824;2022-12-29T02:19:48;13.2;98.5
45383;DHT22;42455;51.660;5.824;2022-12-29T02:27:01;13.3;98.5
45383;DHT22;42455;51.660;5.824;2022-12-29T02:32:00;13.3;98.5
45383;DHT22;42455;51.660;5.824;2022-12-29T02:37:02;13.4;98.5
45383;DHT22;42455;51.660;5.824;2022-12-29T02:41:59;13.4;98.5
45383;DHT22;42455;51.660;5.824;2022-12-29T02:46:17;13.4;98.5
45383;DHT22;42455;51.660;5.824;2022-12-29T02:50:20;13.5;98.5
45383;DHT22;42455;51.660;5.824;2022-12-29T02:54:10;13.5;98.0
45383;DHT22;42455;51.660;5.824;2022-12-29T02:59:16;13.6;98.0
45383;DHT22;42455;51.660;5.824;2022-12-29T03:05:17;13.6;98.0
45383;DHT22;42455;51.660;5.824;2022-12-29T03:10:59;13.6;97.5
45383;DHT22;42455;51.660;5.824;2022-12-29T03:14:49;13.6;97.5
45383;DHT22;42455;51.660;5.824;2022-12-29T03:19:47;13.6;97.5
45383;DHT22;42455;51.660;5.824;2022-12-29T03:24:49;13.6;97.5
45383;DHT22;42455;51.660;5.824;2022-12-29T03:30:01;13.6;97.5
45383;DHT22;42455;51.660;5.824;2022-12-29T03:35:00;13.6;97.5
45383;DHT22;42455;51.660;5.824;2022-12-29T03:40:06;13.6;97.5
45383;DHT22;42455;51.660;5.824;2022-12-29T03:45:11;13.6;97.5
45383;DHT22;42455;51.660;5.824;2022-12-29T03:50:18;13.6;97.0
45383;DHT22;42455;51.660;5.824;2022-12-29T03:55:24;13.6;97.0
45383;DHT22;42455;51.660;5.824;2022-12-29T04:00:30;13.5;97.0
45383;DHT22;42455;51.660;5.824;2022-12-29T04:05:36;13.5;97.0
45383;DHT22;42455;51.660;5.824;2022-12-29T04:10:43;13.5;97.0
45383;DHT22;42455;51.660;5.824;2022-12-29T04:15:49;13.5;97.0
45383;DHT22;42455;51.660;5.824;2022-12-29T04:20:55;13.5;97.0
45383;DHT22;42455;51.660;5.824;2022-12-29T04:26:01;13.4;97.0
45383;DHT22;42455;51.660;5.824;2022-12-29T04:31:07;13.4;97.0
45383;DHT22;42455;51.660;5.824;2022-12-29T04:36:14;13.4;96.5
45383;DHT22;42455;51.660;5.824;2022-12-29T04:41:20;13.3;96.5
45383;DHT22;42455;51.660;5.824;2022-12-29T04:46:25;13.2;96.5
45383;DHT22;42455;51.660;5.824;2022-12-29T04:51:31;13.1;96.5
45383;DHT22;42455;51.660;5.824;2022-12-29T04:56:37;13.0;96.5
45383;DHT22;42455;51.660;5.824;2022-12-29T05:01:44;12.9;96.5
45383;DHT22;42455;51.660;5.824;2022-12-29T05:06:50;12.9;96.5
45383;DHT22;42455;51.660;5.824;2022-12-29T05:11:56;12.8;96.5
45383;DHT22;42455;51.660;5.824;2022-12-29T05:17:02;12.7;96.5
45383;DHT22;42455;51.660;5.824;2022-12-29T05:22:08;12.7;96.5
45383;DHT22;42455;51.660;5.824;2022-12-29T05:27:15;12.6;96.5
45383;DHT22;42455;51.660;5.824;2022-12-29T05:32:21;12.5;96.5
45383;DHT22;42455;51.660;5.824;2022-12-29T05:37:27;12.5;96.5
45383;DHT22;42455;51.660;5.824;2022-12-29T05:42:33;12.5;96.5
45383;DHT22;42455;51.660;5.824;2022-12-29T05:47:40;12.4;96.0
45383;DHT22;42455;51.660;5.824;2022-12-29T05:52:46;12.4;96.0
45383;DHT22;42455;51.660;5.824;2022-12-29T05:57:52;12.4;96.0
45383;DHT22;42455;51.660;5.824;2022-12-29T06:02:58;12.4;96.5
45383;DHT22;42455;51.660;5.824;2022-12-29T06:08:05;12.4;96.5
45383;DHT22;42455;51.660;5.824;2022-12-29T06:13:11;12.5;96.0
45383;DHT22;42455;51.660;5.824;2022-12-29T06:18:17;12.5;96.0
45383;DHT22;42455;51.660;5.824;2022-12-29T06:23:23;12.6;96.0
45383;DHT22;42455;51.660;5.824;2022-12-29T06:28:29;12.6;95.5
45383;DHT22;42455;51.660;5.824;2022-12-29T06:33:35;12.7;95.5
45383;DHT22;42455;51.660;5.824;2022-12-29T06:38:42;12.7;95.0
45383;DHT22;42455;51.660;5.824;2022-12-29T06:43:48;12.7;95.0
45383;DHT22;42455;51.660;5.824;2022-12-29T06:48:54;12.7;95.0
45383;DHT22;42455;51.660;5.824;2022-12-29T06:54:00;12.7;94.5
45383;DHT22;42455;51.660;5.824;2022-12-29T06:59:06;12.7;94.5
45383;DHT22;42455;51.660;5.824;2022-12-29T07:04:13;12.7;94.0
45383;DHT22;42455;51.660;5.824;2022-12-29T07:09:19;12.7;94.0
45383;DHT22;42455;51.660;5.824;2022-12-29T07:14:25;12.7;94.0
45383;DHT22;42455;51.660;5.824;2022-12-29T07:19:31;12.7;93.5
45383;DHT22;42455;51.660;5.824;2022-12-29T07:24:37;12.7;93.5
45383;DHT22;42455;51.660;5.824;2022-12-29T07:29:44;12.7;93.5
45383;DHT22;42455;51.660;5.824;2022-12-29T07:34:50;12.8;93.0
45383;DHT22;42455;51.660;5.824;2022-12-29T07:39:56;12.8;93.0
45383;DHT22;42455;51.660;5.824;2022-12-29T07:45:03;12.9;93.0
45383;DHT22;42455;51.660;5.824;2022-12-29T07:50:09;12.9;93.0
45383;DHT22;42455;51.660;5.824;2022-12-29T07:55:15;12.9;92.5
45383;DHT22;42455;51.660;5.824;2022-12-29T08:00:21;12.9;92.0
45383;DHT22;42455;51.660;5.824;2022-12-29T08:05:27;12.9;92.0
45383;DHT22;42455;51.660;5.824;2022-12-29T08:10:33;12.9;92.0
45383;DHT22;42455;51.660;5.824;2022-12-29T08:15:40;12.9;91.5
45383;DHT22;42455;51.660;5.824;2022-12-29T08:20:46;12.9;91.5
45383;DHT22;42455;51.660;5.824;2022-12-29T08:25:56;12.9;91.5
45383;DHT22;42455;51.660;5.824;2022-12-29T08:30:59;12.9;91.5
45383;DHT22;42455;51.660;5.824;2022-12-29T08:36:06;12.9;91.5
45383;DHT22;42455;51.660;5.824;2022-12-29T08:41:11;13.0;91.5
45383;DHT22;42455;51.660;5.824;2022-12-29T08:46:17;13.0;91.5
45383;DHT22;42455;51.660;5.824;2022-12-29T08:51:23;13.0;91.5
45383;DHT22;42455;51.660;5.824;2022-12-29T08:56:30;13.1;91.0
45383;DHT22;42455;51.660;5.824;2022-12-29T09:01:35;13.1;91.0
45383;DHT22;42455;51.660;5.824;2022-12-29T09:06:42;13.1;91.0
45383;DHT22;42455;51.660;5.824;2022-12-29T09:11:48;13.2;90.5
45383;DHT22;42455;51.660;5.824;2022-12-29T09:16:54;13.2;90.5
45383;DHT22;42455;51.660;5.824;2022-12-29T09:22:00;13.3;90.5
45383;DHT22;42455;51.660;5.824;2022-12-29T09:27:06;13.3;90.0
45383;DHT22;42455;51.660;5.824;2022-12-29T09:32:13;13.3;90.0
45383;DHT22;42455;51.660;5.824;2022-12-29T09:37:19;13.4;90.0
45383;DHT22;42455;51.660;5.824;2022-12-29T09:42:57;13.4;90.0
45383;DHT22;42455;51.660;5.824;2022-12-29T09:47:31;13.4;89.5
45383;DHT22;42455;51.660;5.824;2022-12-29T09:52:48;13.5;89.5
45383;DHT22;42455;51.660;5.824;2022-12-29T09:57:57;13.5;89.5
45383;DHT22;42455;51.660;5.824;2022-12-29T10:02:52;13.5;89.5
45383;DHT22;42455;51.660;5.824;2022-12-29T10:08:18;13.5;89.5
45383;DHT22;42455;51.660;5.824;2022-12-29T10:13:59;13.5;89.5
45383;DHT22;42455;51.660;5.824;2022-12-29T10:20:00;13.4;89.5
45383;DHT22;42455;51.660;5.824;2022-12-29T10:24:07;13.4;89.5
45383;DHT22;42455;51.660;5.824;2022-12-29T10:28:22;13.3;90.0
45383;DHT22;42455;51.660;5.824;2022-12-29T10:33:36;13.3;90.0
45383;DHT22;42455;51.660;5.824;2022-12-29T10:38:35;13.2;90.0
45383;DHT22;42455;51.660;5.824;2022-12-29T10:43:47;13.1;90.5
45383;DHT22;42455;51.660;5.824;2022-12-29T10:48:44;13.0;90.5
45383;DHT22;42455;51.660;5.824;2022-12-29T10:53:54;13.0;91.0
45383;DHT22;42455;51.660;5.824;2022-12-29T10:58:58;12.9;91.0
45383;DHT22;42455;51.660;5.824;2022-12-29T11:04:40;12.9;91.5
45383;DHT22;42455;51.660;5.824;2022-12-29T11:09:16;12.8;91.5
45383;DHT22;42455;51.660;5.824;2022-12-29T11:14:21;12.7;91.5
45383;DHT22;42455;51.660;5.824;2022-12-29T11:19:24;12.7;92.0
45383;DHT22;42455;51.660;5.824;2022-12-29T11:24:29;12.6;92.5
45383;DHT22;42455;51.660;5.824;2022-12-29T11:29:39;12.6;92.5
45383;DHT22;42455;51.660;5.824;2022-12-29T11:34:40;12.6;92.5
45383;DHT22;42455;51.660;5.824;2022-12-29T11:39:56;12.6;93.0
45383;DHT22;42455;51.660;5.824;2022-12-29T11:44:52;12.6;93.0
45383;DHT22;42455;51.660;5.824;2022-12-29T11:50:00;12.6;93.0
45383;DHT22;42455;51.660;5.824;2022-12-29T11:55:20;12.6;93.0
45383;DHT22;42455;51.660;5.824;2022-12-29T12:00:16;12.6;93.0
45383;DHT22;42455;51.660;5.824;2022-12-29T12:05:22;12.6;93.0
45383;DHT22;42455;51.660;5.824;2022-12-29T12:10:27;12.6;93.0
45383;DHT22;42455;51.660;5.824;2022-12-29T12:15:31;12.6;93.5
45383;DHT22;42455;51.660;5.824;2022-12-29T12:20:46;12.7;93.5
45383;DHT22;42455;51.660;5.824;2022-12-29T12:25:56;12.7;93.0
45383;DHT22;42455;51.660;5.824;2022-12-29T12:30:50;12.8;93.0
45383;DHT22;42455;51.660;5.824;2022-12-29T12:36:30;12.8;93.0
45383;DHT22;42455;51.660;5.824;2022-12-29T12:42:00;12.9;93.0
45383;DHT22;42455;51.660;5.824;2022-12-29T12:48:19;12.9;93.0
45383;DHT22;42455;51.660;5.824;2022-12-29T12:54:45;12.9;92.5
45383;DHT22;42455;51.660;5.824;2022-12-29T13:00:14;12.9;92.5
45383;DHT22;42455;51.660;5.824;2022-12-29T13:04:52;12.9;92.5
45383;DHT22;42455;51.660;5.824;2022-12-29T13:10:40;13.0;92.5
45383;DHT22;42455;51.660;5.824;2022-12-29T13:16:15;13.1;92.5
45383;DHT22;42455;51.660;5.824;2022-12-29T13:21:33;13.1;92.0
45383;DHT22;42455;51.660;5.824;2022-12-29T13:27:11;13.1;91.5
45383;DHT22;42455;51.660;5.824;2022-12-29T13:30:38;13.1;91.5
45383;DHT22;42455;51.660;5.824;2022-12-29T13:36:23;13.2;91.5
45383;DHT22;42455;51.660;5.824;2022-12-29T13:39:21;13.2;91.5
45383;DHT22;42455;51.660;5.824;2022-12-29T13:42:16;13.2;91.0
45383;DHT22;42455;51.660;5.824;2022-12-29T13:52:55;13.1;91.0
45383;DHT22;42455;51.660;5.824;2022-12-29T13:57:45;12.9;91.0
45383;DHT22;42455;51.660;5.824;2022-12-29T14:03:23;12.7;91.5
45383;DHT22;42455;51.660;5.824;2022-12-29T14:07:47;12.5;92.0
45383;DHT22;42455;51.660;5.824;2022-12-29T14:13:00;12.4;92.5
45383;DHT22;42455;51.660;5.824;2022-12-29T14:18:11;12.3;93.0
45383;DHT22;42455;51.660;5.824;2022-12-29T14:23:45;12.3;93.0
45383;DHT22;42455;51.660;5.824;2022-12-29T14:28:23;12.2;93.5
45383;DHT22;42455;51.660;5.824;2022-12-29T14:33:17;12.1;93.5
45383;DHT22;42455;51.660;5.824;2022-12-29T14:38:27;12.1;93.5
45383;DHT22;42455;51.660;5.824;2022-12-29T14:43:30;12.0;94.0
45383;DHT22;42455;51.660;5.824;2022-12-29T14:48:44;12.0;94.0
45383;DHT22;42455;51.660;5.824;2022-12-29T14:53:51;11.9;94.0
45383;DHT22;42455;51.660;5.824;2022-12-29T14:58:54;11.9;94.0
45383;DHT22;42455;51.660;5.824;2022-12-29T15:04:05;11.9;94.5
45383;DHT22;42455;51.660;5.824;2022-12-29T15:09:03;11.8;94.5
45383;DHT22;42455;51.660;5.824;2022-12-29T15:14:28;11.8;94.5
45383;DHT22;42455;51.660;5.824;2022-12-29T15:19:22;11.8;94.5
45383;DHT22;42455;51.660;5.824;2022-12-29T15:24:19;11.8;94.5
45383;DHT22;42455;51.660;5.824;2022-12-29T15:29:40;11.8;95.0
45383;DHT22;42455;51.660;5.824;2022-12-29T15:34:31;11.8;95.0
45383;DHT22;42455;51.660;5.824;2022-12-29T15:39:38;11.8;95.0
45383;DHT22;42455;51.660;5.824;2022-12-29T15:44:44;11.8;95.0
45383;DHT22;42455;51.660;5.824;2022-12-29T15:49:52;11.8;95.0
45383;DHT22;42455;51.660;5.824;2022-12-29T15:54:58;11.8;94.5
45383;DHT22;42455;51.660;5.824;2022-12-29T16:00:17;11.8;94.5
45383;DHT22;42455;51.660;5.824;2022-12-29T16:05:09;11.7;94.5
45383;DHT22;42455;51.660;5.824;2022-12-29T16:10:37;11.7;94.5
45383;DHT22;42455;51.660;5.824;2022-12-29T16:15:21;11.7;94.0
45383;DHT22;42455;51.660;5.824;2022-12-29T16:20:34;11.7;94.0
45383;DHT22;42455;51.660;5.824;2022-12-29T16:25:35;11.6;94.0
45383;DHT22;42455;51.660;5.824;2022-12-29T16:30:39;11.6;94.0
45383;DHT22;42455;51.660;5.824;2022-12-29T16:35:47;11.6;93.5
45383;DHT22;42455;51.660;5.824;2022-12-29T16:40:54;11.5;93.5
45383;DHT22;42455;51.660;5.824;2022-12-29T16:46:30;11.5;93.5
45383;DHT22;42455;51.660;5.824;2022-12-29T16:51:11;11.4;93.5
45383;DHT22;42455;51.660;5.824;2022-12-29T16:56:14;11.4;93.5
45383;DHT22;42455;51.660;5.824;2022-12-29T17:01:16;11.3;93.0
45383;DHT22;42455;51.660;5.824;2022-12-29T17:06:23;11.3;93.0
45383;DHT22;42455;51.660;5.824;2022-12-29T17:11:31;11.2;93.0
45383;DHT22;42455;51.660;5.824;2022-12-29T17:16:35;11.2;93.0
45383;DHT22;42455;51.660;5.824;2022-12-29T17:21:41;11.1;93.0
45383;DHT22;42455;51.660;5.824;2022-12-29T17:26:51;11.1;93.0
45383;DHT22;42455;51.660;5.824;2022-12-29T17:31:53;11.0;93.0
45383;DHT22;42455;51.660;5.824;2022-12-29T17:36:59;11.0;93.0
45383;DHT22;42455;51.660;5.824;2022-12-29T17:42:07;10.9;92.5
45383;DHT22;42455;51.660;5.824;2022-12-29T17:47:12;10.9;92.5
45383;DHT22;42455;51.660;5.824;2022-12-29T17:52:19;10.8;92.5
45383;DHT22;42455;51.660;5.824;2022-12-29T17:57:24;10.8;92.5
45383;DHT22;42455;51.660;5.824;2022-12-29T18:02:31;10.7;92.5
45383;DHT22;42455;51.660;5.824;2022-12-29T18:07:37;10.7;92.5
45383;DHT22;42455;51.660;5.824;2022-12-29T18:12:49;10.6;92.5
45383;DHT22;42455;51.660;5.824;2022-12-29T18:17:53;10.5;92.5
45383;DHT22;42455;51.660;5.824;2022-12-29T18:22:56;10.5;92.5
45383;DHT22;42455;51.660;5.824;2022-12-29T18:28:02;10.5;92.5
45383;DHT22;42455;51.660;5.824;2022-12-29T18:33:13;10.4;92.5
45383;DHT22;42455;51.660;5.824;2022-12-29T18:38:14;10.4;92.5
45383;DHT22;42455;51.660;5.824;2022-12-29T18:43:21;10.3;92.5
45383;DHT22;42455;51.660;5.824;2022-12-29T18:48:26;10.3;92.5
45383;DHT22;42455;51.660;5.824;2022-12-29T18:53:33;10.3;92.5
45383;DHT22;42455;51.660;5.824;2022-12-29T18:58:39;10.2;92.5
45383;DHT22;42455;51.660;5.824;2022-12-29T19:03:45;10.2;92.5
45383;DHT22;42455;51.660;5.824;2022-12-29T19:08:51;10.2;92.5
45383;DHT22;42455;51.660;5.824;2022-12-29T19:13:58;10.2;92.5
45383;DHT22;42455;51.660;5.824;2022-12-29T19:19:04;10.2;92.5
45383;DHT22;42455;51.660;5.824;2022-12-29T19:24:10;10.1;93.0
45383;DHT22;42455;51.660;5.824;2022-12-29T19:29:16;10.1;93.0
45383;DHT22;42455;51.660;5.824;2022-12-29T19:34:22;10.1;93.0
45383;DHT22;42455;51.660;5.824;2022-12-29T19:39:28;10.1;93.0
45383;DHT22;42455;51.660;5.824;2022-12-29T19:44:35;10.1;93.0
45383;DHT22;42455;51.660;5.824;2022-12-29T19:49:41;10.1;93.0
45383;DHT22;42455;51.660;5.824;2022-12-29T19:54:47;10.1;93.0
45383;DHT22;42455;51.660;5.824;2022-12-29T19:59:53;10.1;93.0
45383;DHT22;42455;51.660;5.824;2022-12-29T20:04:59;10.1;93.0
45383;DHT22;42455;51.660;5.824;2022-12-29T20:10:07;10.1;93.5
45383;DHT22;42455;51.660;5.824;2022-12-29T20:15:13;10.1;93.0
45383;DHT22;42455;51.660;5.824;2022-12-29T20:20:18;10.0;93.0
45383;DHT22;42455;51.660;5.824;2022-12-29T20:25:24;10.1;93.0
45383;DHT22;42455;51.660;5.824;2022-12-29T20:30:30;10.0;93.0
45383;DHT22;42455;51.660;5.824;2022-12-29T20:35:37;10.0;93.0
45383;DHT22;42455;51.660;5.824;2022-12-29T20:40:43;10.0;93.0
45383;DHT22;42455;51.660;5.824;2022-12-29T20:45:49;10.0;93.0
45383;DHT22;42455;51.660;5.824;2022-12-29T20:50:56;10.0;93.0
45383;DHT22;42455;51.660;5.824;2022-12-29T20:56:04;9.9;93.0
45383;DHT22;42455;51.660;5.824;2022-12-29T21:01:10;9.9;93.0
45383;DHT22;42455;51.660;5.824;2022-12-29T21:06:14;9.9;93.0
45383;DHT22;42455;51.660;5.824;2022-12-29T21:11:21;9.9;93.0
45383;DHT22;42455;51.660;5.824;2022-12-29T21:16:27;9.9;93.0
45383;DHT22;42455;51.660;5.824;2022-12-29T21:21:33;9.9;93.0
45383;DHT22;42455;51.660;5.824;2022-12-29T21:26:39;9.9;93.0
45383;DHT22;42455;51.660;5.824;2022-12-29T21:31:45;9.8;93.0
45383;DHT22;42455;51.660;5.824;2022-12-29T21:36:51;9.8;93.0
45383;DHT22;42455;51.660;5.824;2022-12-29T21:41:57;9.8;93.0
45383;DHT22;42455;51.660;5.824;2022-12-29T21:47:04;9.7;93.0
45383;DHT22;42455;51.660;5.824;2022-12-29T21:52:09;9.7;93.0
45383;DHT22;42455;51.660;5.824;2022-12-29T21:57:17;9.7;93.0
45383;DHT22;42455;51.660;5.824;2022-12-29T22:02:24;9.7;93.0
45383;DHT22;42455;51.660;5.824;2022-12-29T22:07:28;9.7;93.0
45383;DHT22;42455;51.660;5.824;2022-12-29T22:12:34;9.7;93.0
45383;DHT22;42455;51.660;5.824;2022-12-29T22:17:42;9.7;93.0
45383;DHT22;42455;51.660;5.824;2022-12-29T22:22:47;9.7;93.0
45383;DHT22;42455;51.660;5.824;2022-12-29T22:27:52;9.7;93.0
45383;DHT22;42455;51.660;5.824;2022-12-29T22:32:59;9.6;93.0
45383;DHT22;42455;51.660;5.824;2022-12-29T22:38:05;9.6;93.0
45383;DHT22;42455;51.660;5.824;2022-12-29T22:43:11;9.6;93.0
45383;DHT22;42455;51.660;5.824;2022-12-29T22:48:17;9.6;93.0
45383;DHT22;42455;51.660;5.824;2022-12-29T22:53:23;9.6;93.0
45383;DHT22;42455;51.660;5.824;2022-12-29T22:58:30;9.6;93.0
45383;DHT22;42455;51.660;5.824;2022-12-29T23:03:36;9.6;93.0
45383;DHT22;42455;51.660;5.824;2022-12-29T23:08:43;9.6;93.0
45383;DHT22;42455;51.660;5.824;2022-12-29T23:13:48;9.6;93.0
45383;DHT22;42455;51.660;5.824;2022-12-29T23:18:54;9.5;93.0
45383;DHT22;42455;51.660;5.824;2022-12-29T23:24:01;9.5;93.0
45383;DHT22;42455;51.660;5.824;2022-12-29T23:29:09;9.5;92.5
45383;DHT22;42455;51.660;5.824;2022-12-29T23:34:14;9.5;93.0
45383;DHT22;42455;51.660;5.824;2022-12-29T23:39:21;9.4;93.0
45383;DHT22;42455;51.660;5.824;2022-12-29T23:44:25;9.4;93.0
45383;DHT22;42455;51.660;5.824;2022-12-29T23:49:32;9.4;93.0
45383;DHT22;42455;51.660;5.824;2022-12-29T23:54:38;9.4;93.0
45383;DHT22;42455;51.660;5.824;2022-12-29T23:59:44;9.4;93.0
